Time;durP1;ratioP1;P1;durP2;ratioP2;P2;SDS_P1;SDS_P2;PMS_P1;PMS_P2;Temp;Humidity;BMP_temperature;BMP_pressure;BME280_temperature;BME280_humidity;BME280_pressure;Samples;Min_cycle;Max_cycle;Signal;HPM_P1;HPM_P2
2022/04/28 00:01:51;;;;;;;8.50;6.83;;;;;;;;;;5053802;28;20402;-64
2022/04/28 00:04:17;;;;;;;8.87;7.10;;;;;;;;;;5053752;28;20509;-73
2022/04/28 00:06:43;;;;;;;9.23;7.63;;;;;;;;;;5053361;28;20481;-76
2022/04/28 00:09:09;;;;;;;7.70;6.90;;;;;;;;;;5053446;28;20464;-65
2022/04/28 00:11:35;;;;;;;9.17;7.30;;;;;;;;;;5053607;28;20406;-65
2022/04/28 00:14:01;;;;;;;9.80;8.20;;;;;;;;;;5053477;28;20436;-63
2022/04/28 00:16:28;;;;;;;11.47;7.47;;;;;;;;;;5053469;28;20889;-70
2022/04/28 00:18:54;;;;;;;8.37;6.57;;;;;;;;;;5053288;28;20495;-67
2022/04/28 00:21:20;;;;;;;7.30;6.60;;;;;;;;;;5053477;28;20404;-82
2022/04/28 00:23:47;;;;;;;16.63;8.00;;;;;;;;;;5053334;28;20439;-63
2022/04/28 00:26:13;;;;;;;9.10;6.60;;;;;;;;;;5053351;28;20425;-64
2022/04/28 00:28:39;;;;;;;9.10;7.30;;;;;;;;;;5053238;28;20500;-68
2022/04/28 00:31:05;;;;;;;10.50;7.80;;;;;;;;;;5051880;28;20444;-66
2022/04/28 00:33:31;;;;;;;7.83;7.00;;;;;;;;;;5053120;28;20761;-65
2022/04/28 00:35:57;;;;;;;8.27;7.20;;;;;;;;;;5053172;28;20398;-79
2022/04/28 00:38:23;;;;;;;8.03;6.67;;;;;;;;;;5053236;28;20421;-65
2022/04/28 00:40:49;;;;;;;7.50;6.63;;;;;;;;;;5053034;28;20423;-73
2022/04/28 00:43:18;;;;;;;7.53;6.50;;;;;;;;;;5052927;28;20842;-73
2022/04/28 00:45:44;;;;;;;9.60;7.10;;;;;;;;;;5053057;28;20821;-67
2022/04/28 00:50:57;;;;;;;9.67;7.23;;;;;;;;;;5053024;28;20455;-70
2022/04/28 00:53:25;;;;;;;9.57;7.17;;;;;;;;;;5051714;28;20440;-64
2022/04/28 00:55:51;;;;;;;9.47;7.30;;;;;;;;;;5053061;28;20950;-76
2022/04/28 00:58:17;;;;;;;9.03;7.20;;;;;;;;;;5052900;28;20398;-76
2022/04/28 01:00:43;;;;;;;8.83;7.43;;;;;;;;;;5052852;28;20417;-66
2022/04/28 01:03:09;;;;;;;8.23;7.43;;;;;;;;;;5052946;28;20397;-82
2022/04/28 01:05:35;;;;;;;10.67;7.20;;;;;;;;;;5052954;28;20405;-74
2022/04/28 01:08:01;;;;;;;12.27;7.40;;;;;;;;;;5052684;28;20480;-74
2022/04/28 01:10:27;;;;;;;9.73;7.60;;;;;;;;;;5051439;28;20947;-64
2022/04/28 01:12:53;;;;;;;10.17;7.83;;;;;;;;;;5052937;28;20452;-83
2022/04/28 01:15:19;;;;;;;8.87;7.50;;;;;;;;;;5052885;28;20425;-82
2022/04/28 01:17:45;;;;;;;9.93;8.27;;;;;;;;;;5052730;28;20401;-65
2022/04/28 01:20:11;;;;;;;8.97;8.03;;;;;;;;;;5052731;28;20441;-65
2022/04/28 01:22:38;;;;;;;12.00;8.20;;;;;;;;;;5052773;28;20435;-64
2022/04/28 01:25:07;;;;;;;10.77;7.87;;;;;;;;;;5051490;28;20402;-74
2022/04/28 01:27:34;;;;;;;10.40;7.43;;;;;;;;;;5051421;28;20429;-77
2022/04/28 01:30:00;;;;;;;9.13;7.57;;;;;;;;;;5052722;28;20420;-77
2022/04/28 01:32:26;;;;;;;11.20;8.07;;;;;;;;;;5052620;28;20414;-81
2022/04/28 01:34:52;;;;;;;9.10;7.53;;;;;;;;;;5052673;28;20471;-67
2022/04/28 01:37:18;;;;;;;8.83;7.37;;;;;;;;;;5052704;28;20462;-66
2022/04/28 01:39:44;;;;;;;8.23;7.17;;;;;;;;;;5052477;28;20433;-68
2022/04/28 01:42:10;;;;;;;9.13;6.90;;;;;;;;;;5052706;28;20429;-83
2022/04/28 01:44:36;;;;;;;8.43;7.10;;;;;;;;;;5052692;28;20884;-64
2022/04/28 01:47:03;;;;;;;10.57;8.13;;;;;;;;;;5052504;28;20550;-79
2022/04/28 01:49:29;;;;;;;9.50;8.10;;;;;;;;;;5052412;28;20492;-73
2022/04/28 01:54:57;;;;;;;8.80;7.33;;;;;;;;;;5053265;28;20408;-65
2022/04/28 01:57:23;;;;;;;11.03;8.13;;;;;;;;;;5056109;28;20833;-79
2022/04/28 01:59:51;;;;;;;12.50;8.07;;;;;;;;;;5055999;28;20882;-66
2022/04/28 02:02:17;;;;;;;11.13;7.87;;;;;;;;;;5055934;28;20775;-77
2022/04/28 02:04:43;;;;;;;8.97;7.33;;;;;;;;;;5056017;28;20394;-82
2022/04/28 02:07:11;;;;;;;10.10;8.27;;;;;;;;;;5055773;28;20475;-82
2022/04/28 02:09:37;;;;;;;9.40;7.80;;;;;;;;;;5055834;28;20475;-64
2022/04/28 02:12:03;;;;;;;9.37;7.10;;;;;;;;;;5055816;28;20402;-83
2022/04/28 02:14:29;;;;;;;10.57;8.70;;;;;;;;;;5055740;28;20421;-77
2022/04/28 02:16:55;;;;;;;9.53;8.10;;;;;;;;;;5055809;28;20884;-63
2022/04/28 02:19:22;;;;;;;10.87;7.90;;;;;;;;;;5055558;28;20408;-64
2022/04/28 02:21:48;;;;;;;10.27;8.00;;;;;;;;;;5055505;28;20412;-64
2022/04/28 02:24:14;;;;;;;9.63;8.00;;;;;;;;;;5055597;28;20497;-64
2022/04/28 02:26:40;;;;;;;10.10;8.03;;;;;;;;;;5055559;28;20928;-83
2022/04/28 02:29:06;;;;;;;9.60;7.43;;;;;;;;;;5055465;28;20619;-79
2022/04/28 02:31:32;;;;;;;8.50;7.63;;;;;;;;;;5054189;28;20428;-84
2022/04/28 02:33:58;;;;;;;7.73;6.73;;;;;;;;;;5055534;28;20409;-83
2022/04/28 02:36:24;;;;;;;9.37;7.80;;;;;;;;;;5055030;28;20416;-82
2022/04/28 02:38:51;;;;;;;8.70;7.17;;;;;;;;;;5055464;28;20401;-83
2022/04/28 02:41:20;;;;;;;8.50;6.93;;;;;;;;;;5055157;28;20421;-84
2022/04/28 02:43:47;;;;;;;8.90;6.83;;;;;;;;;;5055350;28;20421;-83
2022/04/28 02:46:13;;;;;;;8.07;7.23;;;;;;;;;;5055216;28;20412;-83
2022/04/28 02:48:39;;;;;;;14.27;7.53;;;;;;;;;;5055170;28;20480;-82
2022/04/28 02:51:06;;;;;;;8.20;6.80;;;;;;;;;;5055189;28;20902;-81
2022/04/28 02:53:32;;;;;;;8.10;7.00;;;;;;;;;;5055039;28;20425;-83
2022/04/28 02:55:58;;;;;;;8.70;7.20;;;;;;;;;;5053893;28;20783;-83
2022/04/28 02:58:24;;;;;;;9.23;7.40;;;;;;;;;;5054874;28;20398;-83
2022/04/28 03:00:50;;;;;;;10.50;7.73;;;;;;;;;;5053754;28;20424;-82
2022/04/28 03:03:16;;;;;;;10.77;7.03;;;;;;;;;;5054805;28;20759;-79
2022/04/28 03:11:11;;;;;;;10.37;7.10;;;;;;;;;;5055069;28;20511;-80
2022/04/28 03:13:38;;;;;;;9.33;7.40;;;;;;;;;;5054822;28;20414;-84
2022/04/28 03:16:05;;;;;;;10.43;7.63;;;;;;;;;;5054686;28;20507;-82
2022/04/28 03:18:31;;;;;;;11.37;9.27;;;;;;;;;;5054580;28;20880;-83
2022/04/28 03:20:57;;;;;;;15.60;8.20;;;;;;;;;;5053253;28;20955;-83
2022/04/28 03:23:26;;;;;;;10.63;7.73;;;;;;;;;;5054473;28;20410;-83
2022/04/28 03:25:52;;;;;;;12.87;8.00;;;;;;;;;;5054467;28;20908;-84
2022/04/28 03:28:21;;;;;;;12.20;7.50;;;;;;;;;;5054321;28;20471;-83
2022/04/28 03:30:48;;;;;;;12.10;7.53;;;;;;;;;;5053069;28;20410;-83
2022/04/28 03:33:15;;;;;;;12.47;9.00;;;;;;;;;;5054287;28;20471;-83
2022/04/28 03:35:41;;;;;;;9.57;6.93;;;;;;;;;;5054342;28;20414;-83
2022/04/28 03:38:13;;;;;;;12.80;7.40;;;;;;;;;;5054045;28;20994;-83
2022/04/28 03:40:42;;;;;;;11.50;8.10;;;;;;;;;;5054152;28;20437;-83
2022/04/28 03:43:09;;;;;;;8.33;6.73;;;;;;;;;;5054047;28;20417;-84
2022/04/28 03:45:35;;;;;;;9.60;7.00;;;;;;;;;;5054124;28;20432;-84
2022/04/28 03:48:01;;;;;;;8.43;6.63;;;;;;;;;;5053950;28;20488;-84
2022/04/28 03:50:31;;;;;;;9.47;6.90;;;;;;;;;;5053916;28;20394;-83
2022/04/28 03:52:58;;;;;;;9.23;7.00;;;;;;;;;;5053957;28;20460;-84
2022/04/28 03:55:24;;;;;;;7.23;6.40;;;;;;;;;;5053859;28;20485;-85
2022/04/28 03:57:50;;;;;;;9.10;7.27;;;;;;;;;;5053675;28;20471;-84
2022/04/28 04:00:16;;;;;;;8.63;7.53;;;;;;;;;;5053821;28;20437;-82
2022/04/28 04:02:42;;;;;;;8.43;6.80;;;;;;;;;;5053632;28;20459;-86
2022/04/28 04:05:09;;;;;;;8.77;7.50;;;;;;;;;;5052376;28;20409;-85
2022/04/28 04:07:38;;;;;;;9.93;7.40;;;;;;;;;;5053474;28;20453;-86
2022/04/28 04:10:05;;;;;;;8.70;7.30;;;;;;;;;;5053447;28;20433;-84
2022/04/28 04:12:31;;;;;;;11.87;7.80;;;;;;;;;;5053683;28;20908;-86
2022/04/28 04:14:57;;;;;;;9.73;7.27;;;;;;;;;;5053742;28;20448;-83
2022/04/28 04:17:23;;;;;;;9.20;7.33;;;;;;;;;;5053039;28;20505;-85
2022/04/28 04:19:49;;;;;;;10.60;7.97;;;;;;;;;;5053399;28;20410;-82
2022/04/28 04:22:15;;;;;;;13.43;7.37;;;;;;;;;;5053538;28;20540;-86
2022/04/28 04:24:41;;;;;;;10.20;7.80;;;;;;;;;;5053412;28;20906;-82
2022/04/28 04:27:07;;;;;;;11.30;6.93;;;;;;;;;;5053308;28;20414;-84
2022/04/28 04:29:34;;;;;;;14.43;8.33;;;;;;;;;;5052133;28;20477;-87
2022/04/28 04:32:18;;;;;;;10.57;7.47;;;;;;;;;;5053125;28;20405;-86
2022/04/28 04:34:45;;;;;;;10.30;7.83;;;;;;;;;;5053319;28;20425;-90
2022/04/28 04:37:11;;;;;;;12.23;7.73;;;;;;;;;;5051794;28;20414;-86
2022/04/28 04:39:38;;;;;;;10.70;7.80;;;;;;;;;;5053046;28;20796;-86
2022/04/28 04:42:04;;;;;;;9.00;7.07;;;;;;;;;;5053039;28;20414;-79
2022/04/28 04:44:30;;;;;;;12.83;7.90;;;;;;;;;;5053178;28;20421;-79
2022/04/28 04:46:56;;;;;;;11.03;7.73;;;;;;;;;;5053138;28;20414;-77
2022/04/28 04:49:22;;;;;;;8.53;7.43;;;;;;;;;;5053029;28;20460;-84
2022/04/28 04:51:48;;;;;;;11.30;7.83;;;;;;;;;;5052951;28;20899;-77
2022/04/28 04:54:14;;;;;;;11.30;8.43;;;;;;;;;;5051750;28;20418;-84
2022/04/28 04:56:40;;;;;;;10.03;7.77;;;;;;;;;;5052816;28;20405;-80
2022/04/28 04:59:06;;;;;;;9.67;7.73;;;;;;;;;;5051555;28;20818;-80
2022/04/28 05:01:32;;;;;;;10.80;7.50;;;;;;;;;;5052810;28;20409;-82
2022/04/28 05:03:58;;;;;;;9.80;8.03;;;;;;;;;;5052991;28;20411;-77
2022/04/28 05:06:24;;;;;;;8.63;7.70;;;;;;;;;;5052682;28;20413;-81
2022/04/28 05:08:50;;;;;;;11.40;8.57;;;;;;;;;;5052986;28;20461;-82
2022/04/28 05:11:17;;;;;;;12.00;8.60;;;;;;;;;;5052722;28;20448;-82
2022/04/28 05:13:43;;;;;;;11.13;7.70;;;;;;;;;;5052755;28;20409;-83
2022/04/28 05:16:09;;;;;;;11.27;8.37;;;;;;;;;;5052798;28;20397;-82
2022/04/28 05:18:35;;;;;;;9.80;7.73;;;;;;;;;;5052568;28;20767;-83
2022/04/28 05:21:01;;;;;;;8.60;7.60;;;;;;;;;;5051528;28;20432;-79
2022/04/28 05:23:27;;;;;;;10.10;7.40;;;;;;;;;;5052720;28;20412;-82
2022/04/28 05:25:53;;;;;;;11.27;8.20;;;;;;;;;;5052551;28;20449;-75
2022/04/28 05:28:19;;;;;;;11.70;9.53;;;;;;;;;;5052616;28;20564;-78
2022/04/28 05:30:46;;;;;;;10.57;8.37;;;;;;;;;;5055012;28;20451;-80
2022/04/28 05:33:12;;;;;;;11.73;9.23;;;;;;;;;;5056390;28;20501;-79
2022/04/28 05:35:40;;;;;;;10.90;9.33;;;;;;;;;;5056406;28;20427;-82
2022/04/28 05:38:08;;;;;;;11.00;8.47;;;;;;;;;;5056331;28;20410;-83
2022/04/28 05:40:34;;;;;;;10.03;8.87;;;;;;;;;;5054929;28;20437;-83
2022/04/28 05:45:46;;;;;;;10.60;8.57;;;;;;;;;;5056425;28;20408;-81
2022/04/28 05:48:19;;;;;;;12.60;8.90;;;;;;;;;;5054989;28;20465;-81
2022/04/28 05:50:45;;;;;;;10.97;9.13;;;;;;;;;;5056159;28;20845;-80
2022/04/28 05:53:12;;;;;;;11.20;8.70;;;;;;;;;;5056034;28;20401;-77
2022/04/28 05:55:38;;;;;;;12.57;9.47;;;;;;;;;;5056107;28;20515;-81
2022/04/28 05:58:05;;;;;;;11.70;9.60;;;;;;;;;;5056097;28;20397;-80
2022/04/28 06:00:31;;;;;;;11.33;9.07;;;;;;;;;;5056119;28;20405;-81
2022/04/28 06:02:57;;;;;;;10.77;9.00;;;;;;;;;;5056011;28;20405;-80
2022/04/28 06:05:24;;;;;;;13.53;10.03;;;;;;;;;;5055909;28;20409;-79
2022/04/28 06:07:51;;;;;;;14.13;9.70;;;;;;;;;;5055658;28;20502;-79
2022/04/28 06:10:17;;;;;;;19.10;10.70;;;;;;;;;;5055771;28;20444;-81
2022/04/28 06:12:43;;;;;;;13.03;10.07;;;;;;;;;;5055735;28;20560;-79
2022/04/28 06:15:10;;;;;;;21.27;11.73;;;;;;;;;;5055810;28;20478;-81
2022/04/28 06:17:36;;;;;;;12.27;10.20;;;;;;;;;;5055626;28;20931;-80
2022/04/28 06:20:03;;;;;;;12.53;9.40;;;;;;;;;;5055701;28;20416;-81
2022/04/28 06:22:29;;;;;;;14.77;10.47;;;;;;;;;;5055649;28;20488;-81
2022/04/28 06:24:56;;;;;;;15.80;9.90;;;;;;;;;;5055554;28;20835;-76
2022/04/28 06:27:22;;;;;;;14.90;10.30;;;;;;;;;;5055546;28;20418;-78
2022/04/28 06:29:49;;;;;;;14.20;10.70;;;;;;;;;;5054214;28;20504;-78
2022/04/28 06:32:17;;;;;;;18.13;10.80;;;;;;;;;;5055529;28;20411;-79
2022/04/28 06:34:44;;;;;;;14.50;10.90;;;;;;;;;;5055496;28;20433;-74
2022/04/28 06:37:10;;;;;;;13.27;10.33;;;;;;;;;;5055409;28;20402;-75
2022/04/28 06:39:36;;;;;;;16.80;10.90;;;;;;;;;;5055327;28;20839;-79
2022/04/28 06:42:03;;;;;;;16.93;10.50;;;;;;;;;;5055043;28;20406;-78
2022/04/28 06:44:29;;;;;;;15.87;11.67;;;;;;;;;;5053835;28;20453;-78
2022/04/28 06:46:55;;;;;;;17.03;11.37;;;;;;;;;;5055169;28;20433;-79
2022/04/28 06:49:21;;;;;;;17.00;10.73;;;;;;;;;;5054954;28;20469;-79
2022/04/28 06:51:47;;;;;;;14.17;10.67;;;;;;;;;;5054853;28;20420;-78
2022/04/28 06:54:13;;;;;;;17.20;11.40;;;;;;;;;;5054982;28;20452;-74
2022/04/28 06:56:39;;;;;;;17.13;11.50;;;;;;;;;;5054904;28;20484;-76
2022/04/28 06:59:05;;;;;;;15.60;11.93;;;;;;;;;;5054920;28;20551;-78
2022/04/28 07:01:31;;;;;;;15.20;11.10;;;;;;;;;;5054512;28;20402;-78
2022/04/28 07:03:57;;;;;;;13.97;11.13;;;;;;;;;;5054638;28;20410;-76
2022/04/28 07:06:23;;;;;;;18.33;10.37;;;;;;;;;;5054555;28;20861;-73
2022/04/28 07:08:49;;;;;;;18.13;10.90;;;;;;;;;;5054544;28;20974;-76
2022/04/28 07:11:16;;;;;;;13.47;10.63;;;;;;;;;;5053349;28;20930;-69
2022/04/28 07:13:42;;;;;;;13.40;10.50;;;;;;;;;;5054474;28;20417;-76
2022/04/28 07:16:08;;;;;;;16.30;9.90;;;;;;;;;;5054586;28;20892;-78
2022/04/28 07:18:34;;;;;;;14.00;10.17;;;;;;;;;;5054421;28;20418;-78
2022/04/28 07:21:01;;;;;;;15.83;10.30;;;;;;;;;;5054240;28;20408;-78
2022/04/28 07:23:27;;;;;;;14.40;10.33;;;;;;;;;;5054474;28;20413;-74
2022/04/28 07:25:53;;;;;;;15.50;10.57;;;;;;;;;;5054375;28;20414;-77
2022/04/28 07:28:19;;;;;;;10.83;8.83;;;;;;;;;;5052883;28;20556;-78
2022/04/28 07:30:46;;;;;;;13.23;9.67;;;;;;;;;;5054236;28;20413;-77
2022/04/28 07:33:12;;;;;;;11.33;7.97;;;;;;;;;;5054324;28;20405;-70
2022/04/28 07:35:38;;;;;;;10.77;8.47;;;;;;;;;;5054214;28;20404;-78
2022/04/28 07:38:04;;;;;;;11.67;8.73;;;;;;;;;;5053990;28;20426;-78
2022/04/28 07:40:30;;;;;;;11.40;8.17;;;;;;;;;;5054143;28;20494;-78
2022/04/28 07:42:57;;;;;;;10.87;8.27;;;;;;;;;;5054147;28;20836;-78
2022/04/28 07:45:23;;;;;;;11.60;8.13;;;;;;;;;;5054004;28;20398;-73
2022/04/28 07:47:49;;;;;;;10.90;8.03;;;;;;;;;;5053862;28;20912;-77
2022/04/28 07:50:16;;;;;;;11.77;8.87;;;;;;;;;;5052582;28;20433;-74
2022/04/28 07:52:43;;;;;;;10.00;8.10;;;;;;;;;;5053320;28;20397;-78
2022/04/28 07:55:09;;;;;;;9.20;7.50;;;;;;;;;;5053844;28;20430;-77
2022/04/28 07:57:35;;;;;;;11.47;9.07;;;;;;;;;;5053722;28;20943;-77
2022/04/28 08:00:03;;;;;;;10.80;8.50;;;;;;;;;;5053844;28;20441;-76
2022/04/28 08:02:29;;;;;;;9.80;8.57;;;;;;;;;;5053569;28;20512;-75
2022/04/28 08:04:55;;;;;;;9.80;8.27;;;;;;;;;;5053805;28;20523;-77
2022/04/28 08:07:22;;;;;;;12.67;7.40;;;;;;;;;;5053544;28;20464;-77
2022/04/28 08:09:48;;;;;;;12.87;7.80;;;;;;;;;;5053538;28;20846;-77
2022/04/28 08:12:14;;;;;;;11.07;8.70;;;;;;;;;;5053452;28;20402;-76
2022/04/28 08:14:40;;;;;;;9.73;7.33;;;;;;;;;;5053715;28;20893;-75
2022/04/28 08:17:06;;;;;;;12.47;7.60;;;;;;;;;;5053923;28;20873;-80
2022/04/28 08:19:33;;;;;;;10.50;8.33;;;;;;;;;;5053445;28;20475;-79
2022/04/28 08:21:59;;;;;;;8.77;6.73;;;;;;;;;;5053840;28;20402;-73
2022/04/28 08:24:25;;;;;;;10.53;7.67;;;;;;;;;;5054290;28;20413;-77
2022/04/28 08:26:54;;;;;;;8.03;6.80;;;;;;;;;;5052299;28;20406;-77
2022/04/28 08:29:20;;;;;;;9.70;7.60;;;;;;;;;;5053406;28;20476;-80
2022/04/28 08:31:46;;;;;;;14.20;7.30;;;;;;;;;;5053224;28;20429;-80
2022/04/28 08:34:17;;;;;;;12.90;6.33;;;;;;;;;;5052115;28;20908;-79
2022/04/28 08:36:44;;;;;;;8.40;6.63;;;;;;;;;;5053523;28;20438;-78
2022/04/28 08:39:10;;;;;;;7.93;6.87;;;;;;;;;;5051991;28;20437;-79
2022/04/28 08:41:42;;;;;;;9.60;6.60;;;;;;;;;;5053156;28;20413;-78
2022/04/28 08:44:13;;;;;;;8.27;6.10;;;;;;;;;;5053208;28;20420;-78
2022/04/28 08:46:51;;;;;;;8.90;5.80;;;;;;;;;;5053162;28;20409;-77
2022/04/28 08:49:20;;;;;;;8.60;6.17;;;;;;;;;;5052918;28;20465;-77
2022/04/28 08:51:46;;;;;;;7.10;6.00;;;;;;;;;;5051803;28;20424;-75
2022/04/28 08:54:13;;;;;;;5.93;5.33;;;;;;;;;;5053278;28;20418;-78
2022/04/28 08:56:39;;;;;;;6.60;5.73;;;;;;;;;;5053013;28;20492;-78
2022/04/28 08:59:05;;;;;;;6.80;6.10;;;;;;;;;;5053013;28;20505;-76
2022/04/28 09:01:31;;;;;;;8.27;5.80;;;;;;;;;;5053005;28;20406;-79
2022/04/28 09:03:59;;;;;;;6.00;5.30;;;;;;;;;;5052980;28;20405;-78
2022/04/28 09:06:29;;;;;;;6.40;5.20;;;;;;;;;;5056402;28;20410;-80
2022/04/28 09:08:55;;;;;;;13.60;6.33;;;;;;;;;;5055812;28;20479;-78
2022/04/28 09:11:22;;;;;;;6.63;6.03;;;;;;;;;;5056991;28;20467;-79
2022/04/28 09:14:15;;;;;;;8.30;6.03;;;;;;;;;;5057095;28;20888;-78
2022/04/28 09:16:46;;;;;;;7.70;5.90;;;;;;;;;;5041099;28;20516;-78
2022/04/28 09:19:12;;;;;;;6.47;5.53;;;;;;;;;;5042436;28;20437;-75
2022/04/28 09:21:40;;;;;;;6.17;5.60;;;;;;;;;;5040199;28;20430;-76
2022/04/28 09:24:06;;;;;;;6.20;4.97;;;;;;;;;;5048127;28;20482;-77
2022/04/28 09:26:32;;;;;;;7.93;5.70;;;;;;;;;;5071414;28;20404;-77
2022/04/28 09:29:02;;;;;;;5.27;4.77;;;;;;;;;;5044796;28;20469;-77
2022/04/28 09:31:29;;;;;;;5.90;5.30;;;;;;;;;;5036553;28;20438;-78
2022/04/28 09:33:55;;;;;;;5.63;4.83;;;;;;;;;;5036606;28;20914;-79
2022/04/28 09:36:21;;;;;;;6.20;4.90;;;;;;;;;;5045905;28;20402;-71
2022/04/28 09:38:53;;;;;;;5.07;4.60;;;;;;;;;;5056410;28;20483;-76
2022/04/28 09:44:05;;;;;;;6.17;4.33;;;;;;;;;;5056731;28;20399;-77
2022/04/28 09:46:31;;;;;;;5.60;4.33;;;;;;;;;;5037244;28;20441;-69
2022/04/28 09:48:58;;;;;;;4.80;3.70;;;;;;;;;;5034624;28;20989;-75
2022/04/28 09:51:25;;;;;;;5.07;4.30;;;;;;;;;;5033653;28;20418;-79
2022/04/28 09:53:51;;;;;;;5.30;4.73;;;;;;;;;;5035820;28;20406;-81
2022/04/28 09:56:21;;;;;;;4.63;4.23;;;;;;;;;;5035646;28;20422;-78
2022/04/28 09:58:48;;;;;;;5.07;4.30;;;;;;;;;;5035558;28;20434;-76
2022/04/28 10:01:15;;;;;;;5.10;4.07;;;;;;;;;;5035781;28;20438;-77
2022/04/28 10:03:42;;;;;;;4.40;3.97;;;;;;;;;;5036076;28;20410;-77
2022/04/28 10:06:08;;;;;;;4.90;4.40;;;;;;;;;;5035891;28;20924;-78
2022/04/28 10:08:35;;;;;;;5.60;4.93;;;;;;;;;;5036010;28;20976;-76
2022/04/28 10:11:03;;;;;;;6.30;4.20;;;;;;;;;;5035929;28;20564;-78
2022/04/28 10:13:30;;;;;;;4.20;3.80;;;;;;;;;;5035752;28;20415;-79
2022/04/28 10:15:57;;;;;;;4.10;3.80;;;;;;;;;;5035126;28;20415;-81
2022/04/28 10:18:24;;;;;;;4.40;4.00;;;;;;;;;;5035517;28;20907;-81
2022/04/28 10:20:50;;;;;;;5.37;4.37;;;;;;;;;;5034852;28;20893;-79
2022/04/28 10:23:17;;;;;;;5.37;4.20;;;;;;;;;;5034253;28;20419;-80
2022/04/28 10:34:14;;;;;;;4.07;3.77;;;;;;;;;;5035577;28;20409;-79
2022/04/28 10:36:53;;;;;;;5.50;3.63;;;;;;;;;;5035316;28;20418;-81
2022/04/28 10:39:40;;;;;;;6.30;4.33;;;;;;;;;;5035160;28;20797;-74
2022/04/28 10:42:16;;;;;;;5.03;3.90;;;;;;;;;;5034959;28;20498;-77
2022/04/28 10:44:54;;;;;;;4.83;4.43;;;;;;;;;;5035113;28;20418;-79
2022/04/28 10:47:29;;;;;;;6.57;4.30;;;;;;;;;;5035281;28;20909;-74
2022/04/28 10:49:55;;;;;;;4.07;3.77;;;;;;;;;;5035025;28;20473;-80
2022/04/28 10:52:22;;;;;;;4.50;4.10;;;;;;;;;;5034665;28;20395;-78
2022/04/28 10:54:52;;;;;;;4.57;4.17;;;;;;;;;;5033418;28;20426;-74
2022/04/28 10:57:18;;;;;;;4.57;4.03;;;;;;;;;;5034562;28;20394;-74
2022/04/28 10:59:49;;;;;;;4.00;3.70;;;;;;;;;;5034729;28;20409;-75
2022/04/28 11:02:14;;;;;;;4.00;3.70;;;;;;;;;;5034641;28;20440;-73
2022/04/28 11:04:41;;;;;;;4.47;4.07;;;;;;;;;;5034740;28;20417;-77
2022/04/28 11:07:19;;;;;;;4.13;3.83;;;;;;;;;;5034427;28;20462;-74
2022/04/28 11:09:50;;;;;;;5.17;4.00;;;;;;;;;;5034563;28;20552;-74
2022/04/28 11:12:18;;;;;;;7.40;5.20;;;;;;;;;;5034521;28;20956;-69
2022/04/28 11:14:45;;;;;;;5.33;4.40;;;;;;;;;;5034451;28;20398;-75
2022/04/28 11:17:11;;;;;;;5.67;4.10;;;;;;;;;;5034397;28;20403;-77
2022/04/28 11:19:37;;;;;;;4.97;3.73;;;;;;;;;;5034462;28;20417;-78
2022/04/28 11:22:03;;;;;;;3.97;3.67;;;;;;;;;;5034609;28;20894;-80
2022/04/28 11:24:30;;;;;;;4.10;3.77;;;;;;;;;;5034579;28;20752;-78
2022/04/28 11:26:59;;;;;;;5.37;4.00;;;;;;;;;;5033854;28;20418;-80
2022/04/28 11:29:26;;;;;;;3.93;3.57;;;;;;;;;;5034214;28;20492;-81
2022/04/28 11:31:53;;;;;;;4.30;3.73;;;;;;;;;;5034409;28;20410;-80
2022/04/28 11:34:19;;;;;;;4.20;3.77;;;;;;;;;;5034433;28;20884;-72
2022/04/28 11:36:46;;;;;;;7.37;3.87;;;;;;;;;;5034237;28;20484;-80
2022/04/28 11:39:12;;;;;;;4.20;3.80;;;;;;;;;;5034237;28;20533;-79
2022/04/28 11:41:42;;;;;;;3.73;3.40;;;;;;;;;;5034144;28;20458;-78
2022/04/28 11:44:08;;;;;;;4.20;3.90;;;;;;;;;;5034161;28;20415;-79
2022/04/28 11:46:43;;;;;;;4.50;4.10;;;;;;;;;;5034018;28;20410;-77
2022/04/28 11:49:09;;;;;;;4.90;4.40;;;;;;;;;;5033884;28;20595;-77
2022/04/28 11:51:36;;;;;;;8.57;4.47;;;;;;;;;;5032621;28;20418;-76
2022/04/28 11:54:03;;;;;;;4.40;4.00;;;;;;;;;;5033958;28;20497;-79
2022/04/28 11:56:31;;;;;;;5.03;3.57;;;;;;;;;;5033895;28;20398;-79
2022/04/28 11:59:00;;;;;;;4.47;4.07;;;;;;;;;;5032549;28;20406;-79
2022/04/28 12:01:30;;;;;;;4.30;3.90;;;;;;;;;;5033708;28;20986;-79
2022/04/28 12:03:56;;;;;;;4.30;3.97;;;;;;;;;;5033775;28;20418;-80
2022/04/28 12:06:23;;;;;;;4.73;4.03;;;;;;;;;;5033608;28;20390;-80
2022/04/28 12:08:59;;;;;;;4.40;4.00;;;;;;;;;;5033803;28;20543;-79
2022/04/28 12:14:25;;;;;;;5.60;3.97;;;;;;;;;;5033896;28;20806;-78
2022/04/28 12:19:56;;;;;;;5.10;3.80;;;;;;;;;;5033876;28;20406;-78
2022/04/28 12:22:26;;;;;;;4.23;3.70;;;;;;;;;;5033481;28;20406;-76
2022/04/28 12:24:52;;;;;;;3.97;3.67;;;;;;;;;;5033450;28;20410;-78
2022/04/28 12:27:18;;;;;;;5.70;4.23;;;;;;;;;;5032251;28;20429;-77
2022/04/28 12:29:54;;;;;;;3.40;3.10;;;;;;;;;;5033321;28;20466;-78
2022/04/28 12:32:21;;;;;;;3.80;3.50;;;;;;;;;;5033525;28;20515;-77
2022/04/28 12:34:56;;;;;;;3.90;3.60;;;;;;;;;;5033305;28;20407;-76
2022/04/28 12:37:24;;;;;;;3.60;3.30;;;;;;;;;;5033357;28;20406;-78
2022/04/28 12:39:57;;;;;;;4.03;3.60;;;;;;;;;;5033054;28;20426;-77
2022/04/28 12:42:24;;;;;;;4.23;3.60;;;;;;;;;;5033320;28;20407;-77
2022/04/28 12:44:50;;;;;;;4.40;4.00;;;;;;;;;;5033084;28;20498;-74
2022/04/28 12:47:16;;;;;;;4.87;4.03;;;;;;;;;;5033007;28;20829;-77
2022/04/28 12:49:48;;;;;;;3.83;3.50;;;;;;;;;;5033025;28;20466;-78
2022/04/28 12:52:34;;;;;;;6.97;3.80;;;;;;;;;;5031675;28;20440;-76
2022/04/28 12:55:01;;;;;;;4.70;3.37;;;;;;;;;;5032960;28;20559;-74
2022/04/28 12:57:30;;;;;;;3.57;3.37;;;;;;;;;;5032776;28;20415;-72
2022/04/28 12:59:56;;;;;;;3.50;3.20;;;;;;;;;;5032915;28;20394;-72
2022/04/28 13:02:32;;;;;;;4.77;3.97;;;;;;;;;;5031576;28;20412;-75
2022/04/28 13:05:14;;;;;;;3.70;3.30;;;;;;;;;;5032909;28;20410;-75
2022/04/28 13:07:41;;;;;;;3.63;3.33;;;;;;;;;;5032695;28;20493;-76
2022/04/28 13:10:08;;;;;;;4.20;3.53;;;;;;;;;;5032551;28;20476;-69
2022/04/28 13:12:34;;;;;;;3.70;3.40;;;;;;;;;;5032602;28;20908;-69
2022/04/28 13:15:01;;;;;;;3.67;3.30;;;;;;;;;;5032636;28;20422;-75
2022/04/28 13:17:28;;;;;;;4.47;4.17;;;;;;;;;;5031312;28;20418;-77
2022/04/28 13:19:54;;;;;;;4.50;4.13;;;;;;;;;;5032695;28;20453;-74
2022/04/28 13:22:20;;;;;;;4.50;3.17;;;;;;;;;;5032629;28;20411;-73
2022/04/28 13:24:46;;;;;;;6.43;4.10;;;;;;;;;;5032746;28;20406;-69
2022/04/28 13:27:12;;;;;;;3.37;3.07;;;;;;;;;;5032733;28;20468;-70
2022/04/28 13:29:39;;;;;;;4.33;3.67;;;;;;;;;;5032596;28;20553;-75
2022/04/28 13:32:07;;;;;;;4.40;3.87;;;;;;;;;;5032540;28;20398;-72
2022/04/28 13:34:33;;;;;;;4.30;3.90;;;;;;;;;;5032531;28;20407;-73
2022/04/28 13:36:59;;;;;;;5.83;3.70;;;;;;;;;;5032442;28;20406;-74
2022/04/28 13:39:25;;;;;;;4.20;3.90;;;;;;;;;;5032539;28;20422;-73
2022/04/28 13:41:51;;;;;;;5.80;4.90;;;;;;;;;;5031219;28;20900;-67
2022/04/28 13:44:19;;;;;;;4.50;4.10;;;;;;;;;;5032551;28;20419;-76
2022/04/28 13:46:45;;;;;;;3.60;3.30;;;;;;;;;;5032444;28;20934;-74
2022/04/28 13:49:11;;;;;;;4.57;4.27;;;;;;;;;;5032437;28;20465;-70
2022/04/28 13:51:37;;;;;;;3.33;3.13;;;;;;;;;;5034562;28;20425;-69
2022/04/28 13:54:03;;;;;;;4.57;3.70;;;;;;;;;;5036028;28;21051;-71
2022/04/28 13:56:29;;;;;;;4.57;4.17;;;;;;;;;;5036093;28;20442;-74
2022/04/28 13:58:55;;;;;;;3.97;3.67;;;;;;;;;;5036327;28;20442;-77
2022/04/28 14:01:21;;;;;;;3.87;3.47;;;;;;;;;;5035997;28;20889;-76
2022/04/28 14:03:47;;;;;;;4.00;3.70;;;;;;;;;;5036090;28;20757;-75
2022/04/28 14:06:14;;;;;;;3.90;3.50;;;;;;;;;;5035766;28;20464;-71
2022/04/28 14:08:40;;;;;;;3.30;3.10;;;;;;;;;;5035955;28;20494;-78
2022/04/28 14:11:07;;;;;;;5.50;3.87;;;;;;;;;;5035854;28;20410;-76
2022/04/28 14:13:34;;;;;;;4.53;3.87;;;;;;;;;;5035741;28;20433;-76
2022/04/28 14:16:01;;;;;;;4.73;3.80;;;;;;;;;;5035682;28;20498;-75
2022/04/28 14:18:27;;;;;;;3.73;3.43;;;;;;;;;;5035800;28;20434;-74
2022/04/28 14:20:54;;;;;;;4.67;4.07;;;;;;;;;;5035565;28;20479;-75
2022/04/28 14:23:20;;;;;;;4.50;4.10;;;;;;;;;;5035733;28;20406;-71
2022/04/28 14:25:47;;;;;;;4.70;3.93;;;;;;;;;;5034379;28;20419;-77
2022/04/28 14:28:13;;;;;;;4.40;3.57;;;;;;;;;;5035522;28;20457;-73
2022/04/28 14:30:42;;;;;;;4.50;3.40;;;;;;;;;;5035502;28;20418;-76
2022/04/28 14:33:08;;;;;;;4.00;3.60;;;;;;;;;;5035575;28;20399;-75
2022/04/28 14:35:34;;;;;;;4.20;3.80;;;;;;;;;;5035455;28;20410;-73
2022/04/28 14:38:01;;;;;;;4.53;4.00;;;;;;;;;;5035117;28;20415;-74
2022/04/28 14:40:27;;;;;;;4.30;4.00;;;;;;;;;;5035261;28;20827;-76
2022/04/28 14:42:53;;;;;;;7.87;3.37;;;;;;;;;;5035184;28;20480;-75
2022/04/28 14:45:19;;;;;;;3.50;3.20;;;;;;;;;;5035296;28;20414;-76
2022/04/28 14:47:45;;;;;;;4.00;3.60;;;;;;;;;;5035224;28;20402;-77
2022/04/28 14:52:56;;;;;;;4.50;3.30;;;;;;;;;;5035187;28;20402;-72
2022/04/28 14:55:23;;;;;;;3.67;3.37;;;;;;;;;;5035169;28;20494;-77
2022/04/28 14:57:49;;;;;;;4.57;4.07;;;;;;;;;;5034999;28;20434;-72
2022/04/28 15:00:20;;;;;;;4.07;3.77;;;;;;;;;;5035074;28;20461;-75
2022/04/28 15:02:49;;;;;;;3.47;3.27;;;;;;;;;;5034885;28;20445;-71
2022/04/28 15:05:16;;;;;;;3.60;3.30;;;;;;;;;;5034754;28;20409;-77
2022/04/28 15:07:42;;;;;;;4.00;3.53;;;;;;;;;;5034672;28;20949;-74
2022/04/28 15:10:08;;;;;;;4.53;3.63;;;;;;;;;;5034619;28;20470;-75
2022/04/28 15:12:35;;;;;;;4.00;3.50;;;;;;;;;;5034590;28;20467;-72